createdAt,value
2022-09-12T00:00:35.567Z,14.80
2022-09-12T00:03:02.982Z,14.03
2022-09-12T00:05:30.966Z,13.70
2022-09-12T00:07:57.442Z,13.80
2022-09-12T00:10:23.880Z,13.73
2022-09-12T00:12:50.397Z,12.80
2022-09-12T00:15:16.900Z,14.07
2022-09-12T00:17:43.646Z,15.50
2022-09-12T00:20:10.989Z,13.23
2022-09-12T00:22:38.629Z,12.93
2022-09-12T00:25:05.592Z,14.07
2022-09-12T00:27:32.110Z,13.27
2022-09-12T00:29:58.551Z,13.30
2022-09-12T00:32:25.368Z,14.13
2022-09-12T00:34:51.813Z,14.23
2022-09-12T00:37:18.311Z,14.13
2022-09-12T00:39:44.804Z,15.23
2022-09-12T00:42:11.958Z,15.70
2022-09-12T00:44:38.491Z,17.47
2022-09-12T00:47:04.918Z,13.20
2022-09-12T00:49:49.653Z,18.03
2022-09-12T00:52:42.220Z,14.70
2022-09-12T00:55:24.858Z,13.53
2022-09-12T00:57:54.528Z,15.63
2022-09-12T01:00:23.630Z,20.90
2022-09-12T01:02:55.986Z,12.63
2022-09-12T01:05:23.601Z,14.53
2022-09-12T01:07:50.903Z,13.40
2022-09-12T01:10:17.994Z,12.97
2022-09-12T01:12:45.551Z,12.87
2022-09-12T01:15:12.395Z,13.83
2022-09-12T01:18:24.048Z,13.20
2022-09-12T01:21:00.054Z,13.70
2022-09-12T01:23:50.425Z,13.37
2022-09-12T01:26:58.425Z,13.50
2022-09-12T01:29:32.988Z,12.90
2022-09-12T01:32:33.583Z,12.47
2022-09-12T01:35:22.870Z,14.50
2022-09-12T01:38:25.505Z,12.97
2022-09-12T01:41:27.475Z,14.10
2022-09-12T01:44:18.526Z,14.33
2022-09-12T01:47:03.299Z,14.00
2022-09-12T01:49:34.124Z,13.10
2022-09-12T01:52:08.869Z,14.00
2022-09-12T01:54:40.348Z,13.17
2022-09-12T01:57:12.558Z,12.00
2022-09-12T01:59:44.361Z,13.70
2022-09-12T02:02:33.002Z,12.47
2022-09-12T02:05:09.870Z,11.80
2022-09-12T02:07:44.343Z,13.77
2022-09-12T02:10:15.258Z,11.47
2022-09-12T02:12:52.538Z,13.93
2022-09-12T02:15:21.193Z,12.53
2022-09-12T02:17:50.168Z,13.87
2022-09-12T02:20:37.451Z,12.70
2022-09-12T02:23:12.680Z,11.77
2022-09-12T02:25:43.017Z,11.60
2022-09-12T02:28:17.856Z,11.93
2022-09-12T02:31:09.148Z,12.20
2022-09-12T02:33:47.047Z,10.90
2022-09-12T02:36:52.141Z,11.67
2022-09-12T02:39:20.848Z,10.90
2022-09-12T02:41:50.421Z,11.90
2022-09-12T02:44:16.875Z,12.07
2022-09-12T02:46:46.794Z,10.33
2022-09-12T02:49:13.935Z,11.00
2022-09-12T02:51:40.480Z,10.63
2022-09-12T02:54:07.748Z,11.97
2022-09-12T02:56:34.247Z,11.07
2022-09-12T02:59:07.105Z,10.20
2022-09-12T03:01:49.154Z,10.67
2022-09-12T03:04:37.619Z,10.40
2022-09-12T03:07:42.754Z,12.23
2022-09-12T03:10:19.740Z,10.40
2022-09-12T03:12:59.416Z,11.30
2022-09-12T03:15:36.326Z,10.27
2022-09-12T03:18:29.132Z,11.13
2022-09-12T03:21:01.950Z,10.60
2022-09-12T03:23:38.838Z,10.77
2022-09-12T03:26:54.863Z,11.10
2022-09-12T03:29:22.028Z,10.93
2022-09-12T03:31:53.618Z,9.17
2022-09-12T03:34:21.481Z,10.83
2022-09-12T03:36:48.945Z,11.30
2022-09-12T03:39:16.193Z,12.23
2022-09-12T03:41:42.810Z,11.40
2022-09-12T03:44:09.362Z,11.10
2022-09-12T03:46:36.068Z,12.03
2022-09-12T03:49:02.657Z,11.37
2022-09-12T03:51:29.337Z,10.77
2022-09-12T03:53:55.878Z,11.60
2022-09-12T03:56:22.532Z,10.90
2022-09-12T03:58:48.939Z,11.37
2022-09-12T04:01:17.558Z,11.47
2022-09-12T04:03:45.402Z,10.10
2022-09-12T04:06:14.571Z,10.13
2022-09-12T04:08:41.935Z,10.00
2022-09-12T04:11:11.270Z,9.33
2022-09-12T04:13:39.016Z,10.70
2022-09-12T04:16:07.341Z,11.00
2022-09-12T04:18:34.583Z,15.53
2022-09-12T04:21:16.472Z,9.80
2022-09-12T04:23:43.133Z,11.03
2022-09-12T04:26:10.337Z,9.53
2022-09-12T04:28:38.395Z,12.07
2022-09-12T04:31:07.602Z,10.00
2022-09-12T04:33:35.425Z,14.70
2022-09-12T04:36:07.517Z,12.83
2022-09-12T04:38:35.507Z,11.10
2022-09-12T04:41:10.719Z,9.67
2022-09-12T04:43:37.146Z,10.13
2022-09-12T04:46:08.344Z,10.20
2022-09-12T04:48:34.916Z,9.90
2022-09-12T04:51:18.602Z,11.90
2022-09-12T04:53:49.293Z,10.00
2022-09-12T04:56:16.025Z,9.37
2022-09-12T04:58:42.578Z,9.97
2022-09-12T05:01:11.408Z,10.03
2022-09-12T05:03:39.521Z,8.77
2022-09-12T05:06:11.970Z,9.17
2022-09-12T05:08:38.500Z,9.20
2022-09-12T05:11:07.399Z,11.00
2022-09-12T05:13:34.441Z,13.43
2022-09-12T05:16:02.535Z,9.40
2022-09-12T05:18:31.514Z,9.37
2022-09-12T05:21:00.170Z,9.03
2022-09-12T05:23:27.712Z,11.63
2022-09-12T05:25:55.850Z,9.40
2022-09-12T05:28:24.642Z,9.73
2022-09-12T05:31:21.550Z,9.50
2022-09-12T05:33:49.573Z,8.63
2022-09-12T05:36:22.028Z,9.00
2022-09-12T05:38:48.676Z,9.97
2022-09-12T05:41:26.893Z,8.80
2022-09-12T05:43:55.148Z,9.20
2022-09-12T05:46:24.170Z,9.87
2022-09-12T05:48:55.638Z,8.80
2022-09-12T05:51:25.437Z,9.80
2022-09-12T05:53:57.355Z,9.03
2022-09-12T05:56:26.190Z,12.60
2022-09-12T05:59:01.848Z,8.63
2022-09-12T06:01:30.157Z,11.67
2022-09-12T06:04:00.573Z,10.03
2022-09-12T06:06:28.127Z,12.17
2022-09-12T06:08:58.351Z,8.33
2022-09-12T06:11:27.361Z,9.60
2022-09-12T06:13:54.127Z,10.00
2022-09-12T06:16:22.570Z,13.83
2022-09-12T06:18:51.824Z,18.40
2022-09-12T06:21:18.762Z,9.80
2022-09-12T06:23:48.154Z,9.80
2022-09-12T06:26:16.637Z,10.63
2022-09-12T06:28:44.970Z,10.33
2022-09-12T06:31:20.315Z,10.73
2022-09-12T06:33:52.118Z,9.23
2022-09-12T06:36:22.662Z,11.07
2022-09-12T06:38:57.102Z,9.47
2022-09-12T06:41:24.403Z,9.90
2022-09-12T06:43:50.912Z,10.83
2022-09-12T06:46:17.444Z,11.60
2022-09-12T06:48:44.017Z,10.10
2022-09-12T06:51:14.861Z,13.17
2022-09-12T06:53:42.240Z,11.57
2022-09-12T06:56:19.169Z,11.23
2022-09-12T06:58:47.405Z,11.67
2022-09-12T07:01:22.226Z,15.07
2022-09-12T07:03:53.939Z,10.27
2022-09-12T07:06:31.453Z,10.03
2022-09-12T07:09:02.405Z,10.03
2022-09-12T07:11:34.119Z,12.53
2022-09-12T07:14:02.689Z,10.43
2022-09-12T07:16:30.433Z,10.93
2022-09-12T07:19:01.979Z,10.07
2022-09-12T07:21:29.485Z,10.17
2022-09-12T07:23:57.819Z,9.60
2022-09-12T07:26:26.895Z,12.13
2022-09-12T07:28:54.607Z,10.30
2022-09-12T07:31:25.635Z,10.63
2022-09-12T07:33:54.599Z,9.10
2022-09-12T07:36:23.709Z,10.23
2022-09-12T07:38:57.728Z,11.90
2022-09-12T07:41:33.500Z,9.43
2022-09-12T07:44:01.237Z,8.73
2022-09-12T07:46:29.508Z,9.37
2022-09-12T07:48:58.145Z,9.70
2022-09-12T07:51:26.438Z,7.30
2022-09-12T07:53:53.264Z,9.30
2022-09-12T07:56:21.108Z,8.83
2022-09-12T07:58:48.357Z,9.43
2022-09-12T08:01:17.510Z,8.27
2022-09-12T08:03:45.973Z,8.30
2022-09-12T08:06:15.319Z,7.97
2022-09-12T08:08:42.384Z,9.37
2022-09-12T08:11:13.862Z,8.30
2022-09-12T08:13:41.577Z,8.83
2022-09-12T08:16:12.397Z,8.33
2022-09-12T08:18:39.596Z,15.53
2022-09-12T08:21:08.255Z,10.97
2022-09-12T08:23:34.809Z,11.00
2022-09-12T08:26:06.100Z,11.37
2022-09-12T08:28:34.180Z,11.40
2022-09-12T08:31:21.824Z,10.80
2022-09-12T08:33:48.475Z,10.50
2022-09-12T08:36:15.946Z,10.83
2022-09-12T08:38:44.831Z,11.33
2022-09-12T08:41:28.039Z,11.27
2022-09-12T08:44:26.548Z,11.50
2022-09-12T08:47:17.244Z,11.73
2022-09-12T08:50:01.118Z,12.20
2022-09-12T08:52:39.839Z,10.50
2022-09-12T08:55:18.160Z,11.83
2022-09-12T08:57:47.777Z,11.43
2022-09-12T09:00:15.725Z,12.93
2022-09-12T09:02:54.372Z,11.73
2022-09-12T09:05:52.010Z,12.00
2022-09-12T09:08:50.600Z,10.10
2022-09-12T09:12:02.318Z,9.87
2022-09-12T09:15:01.790Z,12.73
2022-09-12T09:17:43.682Z,10.83
2022-09-12T09:20:36.309Z,9.70
2022-09-12T09:23:17.506Z,9.87
2022-09-12T09:26:00.505Z,9.83
2022-09-12T09:28:57.173Z,10.10
2022-09-12T09:31:28.911Z,9.40
2022-09-12T09:33:55.640Z,8.63
2022-09-12T09:36:25.184Z,10.13
2022-09-12T09:39:05.747Z,9.03
2022-09-12T09:41:41.765Z,10.07
2022-09-12T09:46:39.769Z,8.83
2022-09-12T09:49:07.165Z,9.03
2022-09-12T09:51:39.689Z,8.43
2022-09-12T09:54:22.555Z,8.33
2022-09-12T09:56:49.191Z,10.57
2022-09-12T09:59:19.687Z,8.40
2022-09-12T10:01:52.792Z,7.03
2022-09-12T10:04:22.382Z,8.00
2022-09-12T10:06:52.172Z,6.40
2022-09-12T10:09:20.180Z,6.80
2022-09-12T10:11:47.800Z,5.70
2022-09-12T10:14:30.813Z,6.17
2022-09-12T10:16:58.291Z,5.30
2022-09-12T10:19:37.169Z,6.47
2022-09-12T10:22:04.868Z,5.90
2022-09-12T10:24:37.130Z,5.07
2022-09-12T10:27:12.650Z,5.33
2022-09-12T10:29:59.304Z,5.17
2022-09-12T10:32:30.695Z,5.13
2022-09-12T10:35:03.409Z,5.23
2022-09-12T10:37:35.507Z,6.17
2022-09-12T10:40:03.924Z,5.63
2022-09-12T10:42:49.370Z,6.37
2022-09-12T10:45:24.978Z,6.33
2022-09-12T10:47:53.652Z,5.57
2022-09-12T10:50:31.673Z,5.37
2022-09-12T10:53:19.616Z,6.03
2022-09-12T10:56:10.445Z,4.50
2022-09-12T10:58:43.199Z,4.73
2022-09-12T11:01:24.867Z,4.10
2022-09-12T11:04:20.728Z,3.93
2022-09-12T11:06:58.788Z,4.37
2022-09-12T11:10:01.642Z,4.37
2022-09-12T11:13:13.148Z,3.63
2022-09-12T11:16:02.464Z,4.10
2022-09-12T11:18:53.856Z,4.53
2022-09-12T11:21:48.156Z,4.10
2022-09-12T11:24:28.296Z,4.57
2022-09-12T11:27:09.923Z,3.50
2022-09-12T11:29:36.375Z,4.20
2022-09-12T11:32:17.590Z,3.83
2022-09-12T11:34:55.997Z,4.17
2022-09-12T11:37:56.526Z,4.00
2022-09-12T11:40:30.409Z,3.93
2022-09-12T11:43:07.750Z,3.50
2022-09-12T11:45:45.088Z,3.93
2022-09-12T11:48:21.472Z,4.27
2022-09-12T11:50:48.019Z,3.63
2022-09-12T11:53:23.013Z,5.10
2022-09-12T11:55:55.425Z,3.57
2022-09-12T11:58:24.537Z,3.70
2022-09-12T12:00:54.590Z,4.13
2022-09-12T12:03:27.500Z,3.73
2022-09-12T12:06:19.197Z,3.23
2022-09-12T12:08:46.743Z,3.13
2022-09-12T12:11:16.482Z,3.73
2022-09-12T12:13:49.870Z,3.50
2022-09-12T12:16:32.257Z,3.50
2022-09-12T12:19:07.591Z,4.00
2022-09-12T12:21:41.338Z,4.17
2022-09-12T12:24:07.726Z,3.90
2022-09-12T12:26:40.589Z,4.10
2022-09-12T12:29:21.934Z,3.93
2022-09-12T12:32:11.636Z,3.70
2022-09-12T12:34:46.000Z,3.97
2022-09-12T12:37:21.548Z,4.77
2022-09-12T12:39:48.311Z,3.97
2022-09-12T12:42:35.888Z,4.00
2022-09-12T12:45:04.169Z,4.60
2022-09-12T12:47:40.861Z,5.10
2022-09-12T12:50:10.278Z,4.07
2022-09-12T12:52:48.759Z,6.77
2022-09-12T12:55:38.619Z,4.70
2022-09-12T12:58:32.956Z,3.80
2022-09-12T13:01:07.060Z,3.97
2022-09-12T13:03:34.186Z,3.87
2022-09-12T13:06:03.227Z,3.80
2022-09-12T13:08:32.456Z,3.33
2022-09-12T13:11:11.399Z,3.13
2022-09-12T13:13:41.565Z,3.87
2022-09-12T13:16:10.681Z,3.13
2022-09-12T13:18:46.578Z,4.10
2022-09-12T13:21:17.766Z,3.50
2022-09-12T13:23:45.099Z,3.83
2022-09-12T13:26:22.906Z,3.80
2022-09-12T13:28:50.334Z,4.13
2022-09-12T13:31:24.146Z,3.47
2022-09-12T13:33:57.530Z,4.57
2022-09-12T13:36:33.898Z,4.07
2022-09-12T13:39:16.382Z,3.23
2022-09-12T13:42:20.064Z,3.83
2022-09-12T13:45:04.843Z,3.93
2022-09-12T13:47:44.383Z,4.40
2022-09-12T13:50:21.037Z,3.20
2022-09-12T13:52:52.061Z,4.10
2022-09-12T13:55:56.180Z,3.80
2022-09-12T13:58:28.417Z,4.43
2022-09-12T14:01:07.106Z,3.80
2022-09-12T14:03:59.151Z,3.60
2022-09-12T14:06:27.730Z,4.90
2022-09-12T14:08:57.410Z,3.80
2022-09-12T14:11:26.996Z,3.70
2022-09-12T14:13:55.179Z,5.77
2022-09-12T14:16:23.755Z,3.60
2022-09-12T14:18:51.864Z,3.70
2022-09-12T14:21:34.682Z,4.27
2022-09-12T14:24:02.449Z,4.10
2022-09-12T14:26:32.392Z,4.57
2022-09-12T14:28:59.650Z,3.70
2022-09-12T14:31:31.669Z,4.67
2022-09-12T14:34:15.074Z,3.83
2022-09-12T14:36:55.946Z,4.20
2022-09-12T14:39:28.618Z,4.60
2022-09-12T14:42:07.473Z,3.73
2022-09-12T14:44:35.627Z,3.77
2022-09-12T14:47:37.186Z,3.73
2022-09-12T14:50:06.259Z,3.50
2022-09-12T14:52:35.034Z,5.50
2022-09-12T14:55:21.142Z,3.87
2022-09-12T14:57:50.006Z,3.80
2022-09-12T15:00:20.857Z,3.87
2022-09-12T15:02:48.910Z,3.97
2022-09-12T15:05:21.709Z,4.90
2022-09-12T15:07:51.249Z,4.30
2022-09-12T15:10:35.115Z,4.30
2022-09-12T15:13:16.876Z,4.17
2022-09-12T15:15:54.370Z,4.40
2022-09-12T15:18:22.195Z,5.83
2022-09-12T15:20:51.156Z,5.00
2022-09-12T15:23:40.217Z,5.20
2022-09-12T15:26:08.037Z,4.57
2022-09-12T15:28:34.632Z,5.70
2022-09-12T15:31:16.127Z,4.03
2022-09-12T15:33:42.784Z,4.67
2022-09-12T15:36:14.595Z,6.43
2022-09-12T15:38:41.210Z,4.30
2022-09-12T15:41:17.486Z,4.67
2022-09-12T15:43:45.552Z,3.67
2022-09-12T15:46:13.744Z,4.67
2022-09-12T15:48:40.611Z,4.30
2022-09-12T15:51:19.674Z,3.93
2022-09-12T15:53:47.457Z,3.90
2022-09-12T15:56:15.979Z,4.33
2022-09-12T15:58:57.110Z,4.10
2022-09-12T16:01:24.593Z,3.90
2022-09-12T16:03:51.361Z,4.80
2022-09-12T16:06:17.852Z,24.40
2022-09-12T16:08:44.535Z,4.00
2022-09-12T16:11:16.368Z,4.17
2022-09-12T16:13:42.814Z,3.90
2022-09-12T16:16:09.562Z,4.27
2022-09-12T16:18:36.193Z,4.50
2022-09-12T16:21:02.711Z,3.90
2022-09-12T16:23:29.158Z,3.90
2022-09-12T16:25:59.951Z,3.80
2022-09-12T16:28:27.491Z,3.27
2022-09-12T16:30:58.037Z,4.23
2022-09-12T16:33:25.469Z,4.20
2022-09-12T16:35:54.978Z,4.00
2022-09-12T16:38:22.465Z,3.80
2022-09-12T16:40:48.998Z,3.80
2022-09-12T16:43:17.294Z,3.97
2022-09-12T16:45:44.484Z,3.70
2022-09-12T16:48:11.266Z,3.40
2022-09-12T16:50:37.709Z,3.83
2022-09-12T16:53:04.434Z,2.70
2022-09-12T16:55:32.478Z,3.30
2022-09-12T16:57:59.408Z,3.93
2022-09-12T17:00:25.867Z,3.93
2022-09-12T17:02:52.601Z,3.23
2022-09-12T17:05:19.162Z,4.20
2022-09-12T17:07:45.670Z,4.77
2022-09-12T17:10:12.291Z,3.83
2022-09-12T17:12:38.889Z,4.37
2022-09-12T17:15:05.897Z,3.50
2022-09-12T17:17:32.354Z,3.63
2022-09-12T17:19:59.145Z,3.60
2022-09-12T17:22:25.609Z,4.50
2022-09-12T17:24:52.311Z,3.90
2022-09-12T17:27:18.741Z,5.40
2022-09-12T17:29:45.544Z,3.07
2022-09-12T17:32:15.616Z,3.50
2022-09-12T17:34:43.959Z,3.43
2022-09-12T17:37:10.478Z,3.20
2022-09-12T17:39:37.001Z,3.50
2022-09-12T17:42:03.711Z,3.60
2022-09-12T17:44:30.290Z,11.93
2022-09-12T17:46:56.758Z,5.13
2022-09-12T17:49:23.375Z,4.77
2022-09-12T17:51:51.118Z,4.80
2022-09-12T17:54:20.795Z,6.53
2022-09-12T17:56:49.781Z,3.63
2022-09-12T17:59:18.850Z,3.57
2022-09-12T18:02:05.070Z,3.57
2022-09-12T18:04:31.761Z,4.20
2022-09-12T18:07:00.446Z,4.13
2022-09-12T18:09:27.930Z,3.47
2022-09-12T18:11:54.817Z,3.60
2022-09-12T18:14:22.019Z,4.20
2022-09-12T18:16:48.554Z,6.40
2022-09-12T18:19:15.783Z,3.80
2022-09-12T18:21:42.238Z,6.87
2022-09-12T18:24:09.621Z,4.27
2022-09-12T18:26:36.121Z,4.30
2022-09-12T18:29:02.758Z,4.47
2022-09-12T18:31:30.247Z,5.00
2022-09-12T18:33:59.795Z,6.00
2022-09-12T18:36:27.042Z,4.73
2022-09-12T18:38:53.937Z,4.97
2022-09-12T18:41:22.223Z,5.23
2022-09-12T18:43:49.426Z,5.90
2022-09-12T18:46:18.449Z,5.20
2022-09-12T18:48:45.900Z,5.03
2022-09-12T18:51:20.546Z,5.53
2022-09-12T18:53:52.905Z,11.23
2022-09-12T18:56:20.141Z,10.33
2022-09-12T18:58:53.496Z,5.73
2022-09-12T19:01:24.697Z,5.27
2022-09-12T19:03:52.182Z,5.27
2022-09-12T19:06:21.413Z,6.37
2022-09-12T19:08:48.852Z,7.20
2022-09-12T19:11:17.341Z,7.70
2022-09-12T19:13:45.578Z,6.60
2022-09-12T19:16:15.625Z,5.50
2022-09-12T19:18:42.809Z,6.30
2022-09-12T19:21:22.183Z,8.33
2022-09-12T19:23:49.624Z,6.83
2022-09-12T19:26:17.032Z,6.40
2022-09-12T19:28:43.931Z,5.63
2022-09-12T19:31:12.198Z,4.87
2022-09-12T19:33:39.342Z,5.57
2022-09-12T19:36:21.966Z,6.17
2022-09-12T19:38:54.759Z,6.63
2022-09-12T19:41:21.453Z,6.83
2022-09-12T19:43:48.198Z,6.10
2022-09-12T19:46:19.925Z,6.53
2022-09-12T19:48:47.257Z,6.43
2022-09-12T19:51:14.392Z,36.47
2022-09-12T19:53:42.214Z,10.50
2022-09-12T19:56:10.044Z,9.17
2022-09-12T19:58:38.930Z,6.87
2022-09-12T20:01:08.710Z,5.77
2022-09-12T20:03:35.236Z,6.10
2022-09-12T20:06:03.697Z,6.13
2022-09-12T20:08:30.184Z,5.47
2022-09-12T20:10:57.233Z,6.00
2022-09-12T20:13:24.279Z,4.83
2022-09-12T20:15:50.962Z,5.80
2022-09-12T20:18:17.671Z,5.90
2022-09-12T20:20:44.258Z,5.47
2022-09-12T20:23:10.793Z,5.30
2022-09-12T20:25:37.749Z,5.77
2022-09-12T20:28:04.221Z,5.40
2022-09-12T20:30:31.078Z,4.50
2022-09-12T20:32:57.629Z,4.90
2022-09-12T20:35:24.135Z,5.30
2022-09-12T20:37:53.148Z,5.60
2022-09-12T20:40:19.694Z,11.53
2022-09-12T20:42:47.069Z,6.87
2022-09-12T20:45:13.571Z,6.60
2022-09-12T20:47:40.465Z,6.73
2022-09-12T20:50:07.204Z,5.97
2022-09-12T20:52:33.667Z,6.60
2022-09-12T20:55:00.135Z,5.13
2022-09-12T20:57:28.486Z,7.63
2022-09-12T20:59:55.185Z,7.07
2022-09-12T21:02:24.357Z,6.57
2022-09-12T21:04:51.147Z,6.33
2022-09-12T21:07:17.648Z,8.23
2022-09-12T21:09:44.472Z,6.00
2022-09-12T21:12:11.076Z,6.57
2022-09-12T21:14:37.649Z,5.90
2022-09-12T21:17:05.253Z,9.43
2022-09-12T21:19:31.734Z,5.60
2022-09-12T21:21:58.281Z,6.03
2022-09-12T21:24:24.773Z,6.50
2022-09-12T21:26:51.265Z,6.83
2022-09-12T21:29:17.823Z,7.47
2022-09-12T21:31:44.561Z,6.00
2022-09-12T21:34:11.158Z,7.10
2022-09-12T21:36:37.753Z,6.20
2022-09-12T21:39:04.873Z,5.93
2022-09-12T21:41:31.369Z,5.83
2022-09-12T21:43:57.877Z,5.70
2022-09-12T21:46:24.538Z,4.83
2022-09-12T21:48:51.137Z,5.20
2022-09-12T21:51:18.067Z,5.20
2022-09-12T21:53:45.394Z,4.90
2022-09-12T21:56:12.009Z,4.13
2022-09-12T21:58:39.229Z,4.80
2022-09-12T22:01:08.586Z,3.53
2022-09-12T22:03:35.334Z,5.13
2022-09-12T22:06:04.424Z,3.60
2022-09-12T22:08:32.406Z,4.40
2022-09-12T22:11:00.798Z,4.30
2022-09-12T22:13:27.864Z,4.30
2022-09-12T22:15:54.455Z,4.43
2022-09-12T22:18:21.002Z,7.47
2022-09-12T22:20:47.614Z,6.53
2022-09-12T22:23:32.576Z,5.07
2022-09-12T22:26:01.282Z,4.30
2022-09-12T22:28:29.730Z,5.00
2022-09-12T22:30:57.312Z,4.20
2022-09-12T22:33:23.855Z,4.30
2022-09-12T22:35:50.395Z,4.10
2022-09-12T22:38:16.905Z,4.20
2022-09-12T22:40:43.842Z,3.67
2022-09-12T22:43:10.523Z,5.17
2022-09-12T22:45:40.610Z,4.87
2022-09-12T22:48:09.210Z,3.90
2022-09-12T22:50:35.970Z,5.43
2022-09-12T22:53:02.552Z,4.87
2022-09-12T22:55:29.073Z,5.07
2022-09-12T22:57:55.759Z,4.60
2022-09-12T23:00:23.570Z,5.00
2022-09-12T23:02:50.280Z,4.50
2022-09-12T23:05:16.904Z,4.70
2022-09-12T23:07:43.447Z,4.00
2022-09-12T23:10:10.628Z,4.83
2022-09-12T23:12:37.266Z,4.83
2022-09-12T23:15:04.282Z,4.87
2022-09-12T23:17:30.803Z,5.70
2022-09-12T23:19:57.326Z,6.27
2022-09-12T23:22:23.920Z,5.50
2022-09-12T23:24:50.373Z,5.47
2022-09-12T23:27:16.907Z,5.80
2022-09-12T23:29:43.410Z,6.17
2022-09-12T23:32:10.495Z,6.57
2022-09-12T23:34:37.155Z,5.30
2022-09-12T23:37:03.686Z,6.60
2022-09-12T23:39:31.771Z,7.17
2022-09-12T23:41:58.247Z,22.77
2022-09-12T23:44:24.700Z,36.77
2022-09-12T23:46:51.160Z,33.20
2022-09-12T23:49:17.712Z,27.63
2022-09-12T23:51:44.718Z,7.40
2022-09-12T23:54:11.302Z,12.90
2022-09-12T23:56:38.099Z,10.70
2022-09-12T23:59:05.203Z,14.70
